Time;durP1;ratioP1;P1;durP2;ratioP2;P2;SDS_P1;SDS_P2;PMS_P1;PMS_P2;Temp;Humidity;BMP_temperature;BMP_pressure;BME280_temperature;BME280_humidity;BME280_pressure;Samples;Min_cycle;Max_cycle;Signal;HPM_P1;HPM_P2
2023/05/05 00:00:19;;;;;;;7.38;3.78;;;18.10;53.70;;;17.48;43.79;100400.44;5067367;28;20044;-78
2023/05/05 00:02:46;;;;;;;6.35;4.05;;;18.10;53.80;;;17.51;43.69;100397.19;5061115;28;20048;-78
2023/05/05 00:05:14;;;;;;;6.63;3.65;;;18.20;53.70;;;17.54;43.53;100401.28;5065904;28;20045;-78
2023/05/05 00:07:41;;;;;;;7.10;3.42;;;18.10;53.40;;;17.57;43.23;100403.47;5065553;28;20572;-79
2023/05/05 00:10:10;;;;;;;6.47;3.50;;;18.20;53.00;;;17.61;43.45;100401.03;5055922;28;20404;-79
2023/05/05 00:12:37;;;;;;;8.80;4.00;;;18.20;53.20;;;17.63;43.33;100398.91;5068668;28;20064;-79
2023/05/05 00:15:10;;;;;;;7.13;3.58;;;18.30;53.20;;;17.65;43.11;100388.66;5074771;28;20048;-79
2023/05/05 00:17:39;;;;;;;7.40;3.22;;;18.30;53.00;;;17.68;43.27;100390.84;5074744;28;20043;-80
2023/05/05 00:20:08;;;;;;;6.85;3.58;;;18.30;53.20;;;17.70;43.25;100394.91;5090463;22;20180;-77
2023/05/05 00:22:36;;;;;;;4.75;3.50;;;18.30;53.00;;;17.71;43.29;100387.63;5087497;28;20122;-77
2023/05/05 00:25:03;;;;;;;9.57;3.40;;;18.40;53.00;;;17.74;43.60;100387.13;5080458;28;20404;-79
2023/05/05 00:27:31;;;;;;;6.97;3.83;;;18.40;53.30;;;17.74;43.65;100387.94;5085238;28;20040;-78
2023/05/05 00:29:58;;;;;;;8.23;3.45;;;18.40;53.40;;;17.75;43.40;100381.47;5072041;28;20128;-76
2023/05/05 00:32:25;;;;;;;6.45;3.60;;;18.40;53.10;;;17.79;43.21;100389.06;5043266;28;20143;-78
2023/05/05 00:34:55;;;;;;;12.77;3.53;;;18.50;53.00;;;17.80;43.39;100372.59;5056666;28;20041;-76
2023/05/05 00:37:22;;;;;;;7.10;3.40;;;18.50;53.00;;;17.82;43.25;100373.16;5045952;28;20051;-77
2023/05/05 00:39:49;;;;;;;6.55;3.60;;;18.50;53.10;;;17.85;43.33;100380.72;5044945;28;20521;-78
2023/05/05 00:42:17;;;;;;;6.40;3.60;;;18.50;53.10;;;17.86;43.61;100382.38;5068499;28;20095;-79
2023/05/05 00:44:45;;;;;;;9.73;4.68;;;18.50;53.40;;;17.87;43.57;100375.91;5051679;28;20075;-78
2023/05/05 00:47:14;;;;;;;6.43;3.53;;;18.50;53.40;;;17.88;43.91;100366.72;5047454;28;20051;-77
2023/05/05 00:49:41;;;;;;;8.77;3.90;;;18.50;53.70;;;17.88;43.90;100366.72;5049897;28;20102;-77
2023/05/05 00:52:11;;;;;;;9.32;3.90;;;18.60;53.70;;;17.90;43.94;100372.66;5064669;28;20036;-78
2023/05/05 00:54:38;;;;;;;8.65;3.95;;;18.60;53.70;;;17.91;43.87;100368.91;5049877;28;20045;-78
2023/05/05 00:57:06;;;;;;;5.93;3.88;;;18.60;53.70;;;17.92;44.35;100369.72;5064057;28;20449;-79
2023/05/05 00:59:34;;;;;;;5.85;3.83;;;18.60;54.10;;;17.92;44.03;100381.31;5036203;28;20045;-77
2023/05/05 01:02:02;;;;;;;6.90;4.03;;;18.60;54.10;;;17.92;45.02;100375.09;5045313;28;20041;-76
2023/05/05 01:04:29;;;;;;;7.68;3.60;;;18.60;55.10;;;17.87;45.22;100380.47;5068185;28;20128;-78
2023/05/05 01:07:11;;;;;;;6.85;3.97;;;18.60;55.20;;;17.87;45.33;100381.28;5047388;28;20662;-76
2023/05/05 01:09:49;;;;;;;8.52;4.00;;;18.50;55.60;;;17.86;45.47;100376.97;5041112;28;20266;-77
2023/05/05 01:12:30;;;;;;;8.65;4.07;;;18.50;55.60;;;17.84;45.38;100379.09;5046144;28;20049;-78
2023/05/05 01:15:08;;;;;;;5.57;3.63;;;18.50;55.50;;;17.84;45.47;100379.09;5054584;28;20555;-78
2023/05/05 01:17:42;;;;;;;6.50;4.30;;;18.50;55.60;;;17.85;45.33;100375.31;5053550;28;20106;-76
2023/05/05 01:20:20;;;;;;;8.15;4.40;;;18.50;55.50;;;17.83;45.77;100388.28;5052248;28;20036;-77
2023/05/05 01:22:53;;;;;;;8.75;4.15;;;18.50;56.10;;;17.82;45.62;100386.66;5067045;28;20468;-77
2023/05/05 01:26:08;;;;;;;7.88;4.30;;;18.50;55.90;;;17.81;46.26;100387.72;5048812;28;20190;-78
2023/05/05 01:29:00;;;;;;;7.53;4.72;;;18.50;56.70;;;17.80;46.16;100382.59;5042953;28;20566;-78
2023/05/05 01:31:50;;;;;;;7.28;4.05;;;18.50;56.80;;;17.79;46.03;100387.16;5044193;28;20106;-78
2023/05/05 01:34:24;;;;;;;8.35;4.43;;;18.40;56.40;;;17.75;46.51;100384.16;5066617;28;20060;-76
2023/05/05 01:37:03;;;;;;;10.48;4.35;;;18.40;56.90;;;17.71;46.41;100390.31;5061238;28;20053;-78
2023/05/05 01:39:34;;;;;;;8.38;4.50;;;18.40;56.80;;;17.70;46.76;100391.41;5067073;28;20091;-78
2023/05/05 01:42:08;;;;;;;7.05;4.32;;;18.30;56.70;;;17.65;46.82;100383.28;5047959;28;20048;-78
2023/05/05 01:44:37;;;;;;;8.07;4.20;;;18.30;57.10;;;17.66;46.64;100384.88;5042782;28;20055;-78
2023/05/05 01:47:07;;;;;;;7.90;4.70;;;18.30;56.90;;;17.65;46.88;100388.66;5039329;28;20131;-78
2023/05/05 01:49:37;;;;;;;7.43;4.30;;;18.30;57.10;;;17.62;47.30;100384.63;5042776;28;20503;-78
2023/05/05 01:52:05;;;;;;;9.20;4.88;;;18.20;57.80;;;17.60;47.09;100394.84;5048293;28;20037;-77
2023/05/05 01:54:34;;;;;;;8.02;4.68;;;18.20;57.40;;;17.58;47.09;100391.59;5050206;28;20576;-77
2023/05/05 01:57:04;;;;;;;7.70;4.25;;;18.20;57.30;;;17.56;47.66;100396.44;5068319;28;20124;-76
2023/05/05 01:59:33;;;;;;;6.70;4.43;;;18.20;58.40;;;17.54;48.18;100405.84;5048158;28;20044;-79
2023/05/05 02:02:03;;;;;;;7.80;4.65;;;18.10;58.90;;;17.51;48.17;100405.28;5047199;28;20125;-78
2023/05/05 02:04:33;;;;;;;10.25;4.75;;;18.10;59.00;;;17.49;48.23;100412.84;5044832;28;20136;-78
2023/05/05 02:07:09;;;;;;;9.73;4.35;;;18.10;59.10;;;17.48;48.29;100410.41;5048928;28;20478;-77
2023/05/05 02:09:37;;;;;;;7.32;3.95;;;18.00;59.20;;;17.46;48.89;100402.56;5044243;28;20094;-78
2023/05/05 02:12:06;;;;;;;8.48;5.10;;;18.00;59.90;;;17.41;49.57;100407.91;5049931;28;20417;-77
2023/05/05 02:14:34;;;;;;;8.68;4.85;;;18.00;60.80;;;17.38;48.79;100403.06;5047630;28;20131;-77
2023/05/05 02:17:03;;;;;;;10.90;5.18;;;18.00;59.60;;;17.35;49.61;100408.94;5063840;28;20076;-78
2023/05/05 02:19:38;;;;;;;7.47;4.95;;;17.90;60.80;;;17.32;49.89;100406.75;5069234;28;20071;-77
2023/05/05 02:22:06;;;;;;;10.63;5.13;;;17.90;61.10;;;17.30;50.16;100402.72;5049598;28;20159;-79
2023/05/05 02:24:34;;;;;;;10.70;4.95;;;17.90;61.60;;;17.29;49.30;100409.19;5048623;28;20051;-77
2023/05/05 02:27:06;;;;;;;9.48;4.65;;;17.90;60.20;;;17.28;49.13;100408.38;5061825;28;20041;-78
2023/05/05 02:29:39;;;;;;;8.63;4.97;;;17.90;60.20;;;17.27;49.77;100405.91;5063929;28;20045;-78
2023/05/05 02:32:16;;;;;;;7.43;5.13;;;17.90;60.60;;;17.24;49.80;100415.34;5062594;28;20060;-77
2023/05/05 02:34:48;;;;;;;7.30;5.18;;;17.80;61.00;;;17.22;50.22;100420.16;5045412;28;20053;-77
2023/05/05 02:37:23;;;;;;;11.93;5.93;;;17.80;61.80;;;17.19;50.37;100421.50;5053992;28;20131;-77
2023/05/05 02:40:01;;;;;;;12.27;5.90;;;17.80;62.00;;;17.17;51.17;100426.31;5047293;28;20049;-77
2023/05/05 02:42:36;;;;;;;9.75;6.20;;;17.70;63.00;;;17.16;51.49;100426.56;5052064;28;20102;-77
2023/05/05 02:45:12;;;;;;;11.02;6.97;;;17.70;63.60;;;17.14;52.46;100428.72;5052821;28;20049;-77
2023/05/05 02:47:42;;;;;;;11.95;8.00;;;17.70;65.20;;;17.13;53.62;100432.47;5044280;28;20539;-77
2023/05/05 02:50:12;;;;;;;16.98;7.95;;;17.70;66.30;;;17.10;54.30;100435.69;5047341;28;20078;-78
2023/05/05 02:52:46;;;;;;;12.73;8.70;;;17.70;67.20;;;17.07;54.78;100437.00;5046225;28;20049;-78
2023/05/05 02:55:14;;;;;;;13.68;8.63;;;17.70;67.90;;;17.06;55.29;100438.06;5050253;28;20595;-77
2023/05/05 02:57:50;;;;;;;12.32;9.10;;;17.70;68.20;;;17.05;56.01;100446.41;5051853;28;20044;-78
2023/05/05 03:00:34;;;;;;;12.30;8.73;;;17.70;68.70;;;17.04;56.15;100447.50;5055153;28;20040;-77
2023/05/05 03:03:12;;;;;;;12.18;8.68;;;17.60;69.10;;;17.06;55.71;100453.44;5050742;28;20071;-77
2023/05/05 03:05:51;;;;;;;13.27;8.63;;;17.70;68.90;;;17.08;55.81;100445.88;5049312;28;20172;-77
2023/05/05 03:08:29;;;;;;;12.32;9.15;;;17.70;69.10;;;17.08;55.96;100445.88;5047904;28;20055;-78
2023/05/05 03:11:04;;;;;;;15.20;8.95;;;17.70;69.20;;;17.07;54.87;100449.66;5050999;28;20040;-77
2023/05/05 03:13:34;;;;;;;14.95;9.20;;;17.70;67.90;;;17.09;55.04;100445.66;5044638;28;20040;-80
2023/05/05 03:16:05;;;;;;;13.50;8.50;;;17.70;68.40;;;17.09;53.64;100447.53;5061112;28;20079;-79
2023/05/05 03:18:34;;;;;;;16.17;8.95;;;17.70;66.40;;;17.09;55.09;100450.22;5052417;28;20044;-76
2023/05/05 03:21:07;;;;;;;14.25;8.13;;;17.70;68.20;;;17.07;54.37;100452.34;5043902;28;20087;-78
2023/05/05 03:23:37;;;;;;;23.15;8.32;;;17.70;67.20;;;17.04;54.59;100450.19;5044706;28;20048;-83
2023/05/05 03:26:08;;;;;;;15.73;9.05;;;17.60;67.80;;;17.02;55.28;100455.81;5044765;28;20051;-92
2023/05/05 03:28:40;;;;;;;12.18;8.00;;;17.60;68.60;;;16.99;54.79;100451.75;5052418;28;20075;-91
2023/05/05 03:31:16;;;;;;;14.75;8.80;;;17.60;67.50;;;16.99;54.75;100448.25;5051452;28;20143;-86
2023/05/05 03:33:46;;;;;;;11.80;8.55;;;17.50;67.80;;;16.96;54.10;100449.56;5050594;28;20040;-89
2023/05/05 03:36:15;;;;;;;12.50;8.10;;;17.60;67.20;;;16.95;53.81;100449.81;5052489;28;20052;-92
2023/05/05 03:38:42;;;;;;;18.00;8.65;;;17.50;66.80;;;16.91;54.09;100446.81;5049922;28;20907;-91
2023/05/05 03:41:09;;;;;;;17.02;9.25;;;17.50;66.80;;;16.88;54.17;100452.69;5049520;28;20055;-94
2023/05/05 03:43:38;;;;;;;14.82;8.65;;;17.50;66.80;;;16.87;54.80;100455.66;5045121;28;20688;-92
2023/05/05 03:46:05;;;;;;;13.00;8.90;;;17.50;67.40;;;16.83;54.59;100459.91;5052420;28;20044;-90
2023/05/05 03:48:33;;;;;;;13.15;8.73;;;17.40;66.60;;;16.80;54.77;100457.75;5051640;28;20044;-93
2023/05/05 03:51:00;;;;;;;16.00;8.93;;;17.40;67.50;;;16.78;54.42;100457.16;5070014;28;20039;-90
2023/05/05 03:53:32;;;;;;;15.30;9.43;;;17.40;66.80;;;16.76;54.79;100453.91;5046466;28;20079;-93
2023/05/05 03:56:01;;;;;;;13.18;9.25;;;17.40;67.00;;;16.73;54.86;100452.53;5052914;28;20041;-93
2023/05/05 03:58:28;;;;;;;13.50;9.88;;;17.40;67.50;;;16.69;54.81;100451.41;5049075;28;20501;-93
2023/05/05 04:00:55;;;;;;;16.48;10.05;;;17.30;67.20;;;16.69;54.92;100451.41;5050878;28;20041;-91
2023/05/05 04:03:22;;;;;;;16.67;9.88;;;17.30;67.40;;;16.66;55.13;100454.59;5051503;28;20052;-89
2023/05/05 04:05:50;;;;;;;16.48;10.82;;;17.30;67.80;;;16.63;55.36;100457.78;5050081;28;20048;-90
2023/05/05 04:08:17;;;;;;;13.80;10.13;;;17.30;68.10;;;16.60;55.55;100448.34;5063144;28;20056;-94
2023/05/05 04:10:46;;;;;;;14.95;10.32;;;17.30;68.30;;;16.59;55.57;100462.03;5048678;28;20045;-93
2023/05/05 04:13:13;;;;;;;16.73;10.85;;;17.20;68.40;;;16.56;55.75;100463.34;5050937;28;20052;-90
2023/05/05 04:15:45;;;;;;;15.55;10.85;;;17.20;68.60;;;16.53;55.85;100461.16;5046413;28;20048;-91
2023/05/05 04:18:13;;;;;;;16.88;10.13;;;17.20;68.80;;;16.51;56.11;100465.19;5060342;28;20075;-94
2023/05/05 04:20:41;;;;;;;14.50;10.50;;;17.20;69.00;;;16.47;56.52;100476.44;5048094;28;20044;-91
2023/05/05 04:23:09;;;;;;;14.93;10.75;;;17.10;69.30;;;16.45;56.20;100470.50;5048870;28;20051;-94
2023/05/05 04:25:36;;;;;;;19.02;11.38;;;17.10;69.30;;;16.43;56.33;100475.31;5052599;28;20037;-93
2023/05/05 04:28:05;;;;;;;14.57;10.68;;;17.10;69.40;;;16.40;56.52;100473.13;5049226;28;20049;-91
2023/05/05 04:30:33;;;;;;;20.55;11.50;;;17.10;69.60;;;16.38;56.66;100483.31;5038314;28;20059;-92
2023/05/05 04:33:00;;;;;;;18.15;10.70;;;17.00;69.50;;;16.34;56.95;100479.50;5045886;28;20052;-92
2023/05/05 04:35:27;;;;;;;14.32;10.40;;;17.00;69.90;;;16.32;56.93;100476.25;5050179;28;20106;-89
2023/05/05 04:37:55;;;;;;;19.80;10.80;;;17.00;70.10;;;16.31;57.33;100479.19;5066065;28;20041;-90
2023/05/05 04:40:23;;;;;;;19.52;10.52;;;16.90;70.30;;;16.29;57.19;100495.56;5048757;28;20151;-89
2023/05/05 04:42:51;;;;;;;13.90;10.15;;;16.90;70.50;;;16.27;57.75;100489.63;5051547;28;20041;-94
2023/05/05 04:45:20;;;;;;;16.80;9.27;;;16.90;70.80;;;16.23;57.84;100500.06;5046332;28;20053;-96
2023/05/05 04:47:48;;;;;;;13.85;9.82;;;16.90;71.10;;;16.22;58.58;100506.53;5054647;28;20048;-93
2023/05/05 04:50:18;;;;;;;12.15;8.90;;;16.90;72.30;;;16.23;58.52;100508.16;5054707;28;20139;-96
2023/05/05 04:52:45;;;;;;;16.70;9.80;;;16.80;72.10;;;16.22;58.67;100508.41;5067029;28;20045;-96
2023/05/05 04:55:13;;;;;;;14.90;9.52;;;16.80;72.30;;;16.25;58.77;100502.53;5069495;28;20364;-93
2023/05/05 04:57:40;;;;;;;14.75;10.18;;;16.90;72.60;;;16.27;59.40;100511.16;5052682;28;20083;-94
2023/05/05 05:00:10;;;;;;;14.82;10.38;;;16.80;73.50;;;16.29;59.13;100509.03;5049578;28;20048;-83
2023/05/05 05:02:40;;;;;;;22.50;10.23;;;16.90;73.50;;;16.31;59.05;100503.41;5049433;28;20044;-81
2023/05/05 05:05:09;;;;;;;14.00;10.55;;;16.90;73.10;;;16.34;59.30;100516.34;5061903;28;20040;-81
2023/05/05 05:07:36;;;;;;;16.13;10.73;;;16.90;73.70;;;16.38;59.41;100509.41;5049161;28;20045;-81
2023/05/05 05:10:04;;;;;;;19.33;11.50;;;16.90;74.10;;;16.42;60.05;100515.94;5050631;28;20044;-81
2023/05/05 05:12:32;;;;;;;17.23;11.95;;;17.00;74.40;;;16.47;59.77;100516.00;5047426;28;20059;-81
2023/05/05 05:14:59;;;;;;;16.25;12.18;;;17.00;74.10;;;16.50;60.25;100526.28;5044124;28;20110;-81
2023/05/05 05:17:28;;;;;;;19.42;12.45;;;17.00;75.20;;;16.55;59.64;100525.53;5066242;28;20044;-81
2023/05/05 05:20:00;;;;;;;20.05;12.50;;;17.10;73.90;;;16.60;59.42;100514.84;5050951;28;20500;-81
2023/05/05 05:22:30;;;;;;;19.60;13.77;;;17.10;74.30;;;16.65;60.28;100521.09;5035964;28;20534;-81
2023/05/05 05:24:57;;;;;;;21.08;12.57;;;17.20;75.40;;;16.67;60.32;100527.03;5035404;28;20514;-79
2023/05/05 05:27:24;;;;;;;23.38;13.05;;;17.20;75.20;;;16.73;60.26;100525.25;5046570;28;20044;-80
2023/05/05 05:29:54;;;;;;;20.08;13.25;;;17.30;75.10;;;16.80;60.98;100533.16;5045788;28;20044;-80
2023/05/05 05:32:21;;;;;;;19.17;12.90;;;17.30;76.20;;;16.86;60.86;100541.03;5048313;28;20469;-79
2023/05/05 05:34:49;;;;;;;18.73;12.77;;;17.40;76.00;;;16.89;60.86;100540.56;5035643;28;20599;-80
2023/05/05 05:37:18;;;;;;;18.88;11.85;;;17.40;75.70;;;16.93;60.24;100543.53;5038386;28;20049;-81
2023/05/05 05:39:51;;;;;;;15.43;12.30;;;17.50;75.40;;;16.96;60.53;100543.84;5037110;28;20136;-80
2023/05/05 05:42:20;;;;;;;18.45;13.05;;;17.50;75.60;;;17.01;61.22;100536.91;5049983;28;20051;-79
2023/05/05 05:44:47;;;;;;;21.73;12.88;;;17.50;76.30;;;17.02;60.70;100547.41;5037674;28;20051;-78
2023/05/05 05:47:14;;;;;;;19.38;14.18;;;17.60;75.50;;;17.08;60.75;100543.75;5062951;28;20068;-80
2023/05/05 05:49:42;;;;;;;21.00;14.00;;;17.60;75.80;;;17.14;60.72;100542.72;5034962;28;20095;-79
2023/05/05 05:52:09;;;;;;;20.27;15.30;;;17.70;75.80;;;17.20;61.45;100544.41;5042881;28;20051;-79
2023/05/05 05:54:38;;;;;;;20.83;15.07;;;17.70;76.40;;;17.26;61.38;100545.25;5047141;28;20048;-79
2023/05/05 05:57:05;;;;;;;19.55;14.35;;;17.80;76.20;;;17.30;61.18;100546.41;5044903;28;20058;-80
2023/05/05 05:59:33;;;;;;;20.00;14.27;;;17.80;76.00;;;17.34;60.45;100544.00;5033946;28;20097;-80
2023/05/05 06:02:00;;;;;;;20.92;15.30;;;17.90;75.50;;;17.43;60.41;100545.19;5046076;28;20514;-78
2023/05/05 06:04:28;;;;;;;23.05;15.35;;;18.00;75.60;;;17.54;60.17;100548.78;5043139;28;20101;-78
2023/05/05 06:06:56;;;;;;;21.42;14.85;;;18.10;75.30;;;17.61;59.76;100552.06;5061045;28;20044;-80
2023/05/05 06:09:23;;;;;;;19.88;14.43;;;18.20;75.10;;;17.67;60.34;100553.78;5066533;28;20040;-80
2023/05/05 06:11:53;;;;;;;17.83;13.63;;;18.20;75.60;;;17.72;59.88;100551.94;5047396;28;20090;-80
2023/05/05 06:14:21;;;;;;;21.75;13.55;;;18.30;74.80;;;17.81;60.06;100551.47;5045872;28;20135;-80
2023/05/05 06:16:49;;;;;;;30.88;16.20;;;18.40;74.80;;;17.86;59.62;100552.34;5049820;28;20063;-79
2023/05/05 06:21:50;;;;;;;24.23;15.15;;;18.50;74.30;;;18.10;59.15;100549.28;5002067;28;20840;-90
2023/05/05 06:24:18;;;;;;;20.67;14.60;;;18.70;73.60;;;18.17;58.81;100539.91;5007150;28;20093;-89
2023/05/05 06:26:45;;;;;;;20.10;14.25;;;18.70;73.60;;;18.30;58.60;100544.03;5011914;28;20053;-90
2023/05/05 06:29:14;;;;;;;18.00;12.82;;;18.90;73.20;;;18.38;58.04;100546.22;5011407;28;20084;-88
2023/05/05 06:31:41;;;;;;;18.85;13.02;;;19.00;72.90;;;18.47;58.20;100552.78;5008190;28;20132;-89
2023/05/05 06:34:08;;;;;;;23.17;12.98;;;19.10;72.50;;;18.60;57.22;100553.38;5011604;28;20054;-91
2023/05/05 06:36:36;;;;;;;18.48;12.82;;;19.20;71.70;;;18.79;57.30;100554.59;5013383;28;20126;-90
2023/05/05 06:39:04;;;;;;;18.15;11.98;;;19.30;71.70;;;18.93;56.04;100553.00;5011229;28;20136;-88
2023/05/05 06:41:31;;;;;;;17.08;11.85;;;19.50;70.10;;;19.07;55.90;100552.53;5010465;28;20099;-90
2023/05/05 06:44:00;;;;;;;15.25;11.13;;;19.70;69.90;;;19.14;55.84;100553.91;5009212;28;20058;-91
2023/05/05 06:46:29;;;;;;;14.52;9.93;;;19.70;69.80;;;19.18;54.25;100554.16;5016164;28;20046;-91
2023/05/05 06:48:57;;;;;;;14.32;10.77;;;19.80;67.90;;;19.19;54.25;100555.81;5013968;28;20048;-90
2023/05/05 06:51:25;;;;;;;15.02;10.50;;;19.80;67.60;;;19.27;54.89;100549.88;5010480;28;20120;-90
2023/05/05 06:53:52;;;;;;;13.93;10.32;;;19.90;68.50;;;19.37;55.01;100557.19;5010292;28;20108;-89
2023/05/05 06:56:19;;;;;;;12.68;9.30;;;20.00;68.40;;;19.46;54.86;100544.78;5015533;28;20457;-90
2023/05/05 06:58:47;;;;;;;11.80;8.05;;;20.10;68.10;;;19.55;54.08;100543.97;5010855;28;20414;-90
2023/05/05 07:01:14;;;;;;;10.88;7.00;;;20.20;67.30;;;19.64;53.02;100547.00;5008258;28;20057;-86
2023/05/05 07:03:43;;;;;;;13.25;7.60;;;20.30;66.00;;;19.72;53.10;100551.06;5022392;28;20081;-88
2023/05/05 07:06:10;;;;;;;11.82;7.45;;;20.40;66.30;;;19.76;51.37;100555.69;5013433;28;20050;-88
2023/05/05 07:08:38;;;;;;;11.88;8.48;;;20.40;64.20;;;19.85;51.85;100564.03;5011021;28;20073;-89
2023/05/05 07:11:05;;;;;;;13.68;8.75;;;20.50;64.80;;;19.85;51.92;100564.03;5010537;28;20100;-89
2023/05/05 07:13:33;;;;;;;14.30;9.27;;;20.50;64.70;;;19.82;50.88;100564.59;5009830;28;20040;-88
2023/05/05 07:16:00;;;;;;;15.73;9.68;;;20.50;63.80;;;19.82;51.24;100577.34;5008663;28;20049;-88
2023/05/05 07:18:27;;;;;;;11.55;8.98;;;20.50;64.20;;;19.82;51.31;100575.44;5011396;28;20049;-89
2023/05/05 07:20:56;;;;;;;15.00;9.25;;;20.50;63.70;;;19.84;51.69;100588.69;5014236;28;20168;-89
2023/05/05 07:23:23;;;;;;;11.60;8.23;;;20.60;64.50;;;19.90;51.98;100583.00;5010884;28;20333;-88
2023/05/05 07:25:50;;;;;;;15.13;9.13;;;20.60;64.50;;;19.89;52.30;100586.78;5008983;28;20054;-88
2023/05/05 07:28:18;;;;;;;14.13;8.85;;;20.60;64.90;;;19.89;50.79;100584.09;5011915;28;20573;-89
2023/05/05 07:30:45;;;;;;;12.10;8.43;;;20.60;63.10;;;19.88;51.60;100600.59;5017537;28;20056;-89
2023/05/05 07:33:13;;;;;;;12.18;8.50;;;20.60;63.90;;;19.90;50.94;100591.13;5022683;28;20042;-88
2023/05/05 07:35:40;;;;;;;15.15;9.38;;;20.60;63.60;;;19.89;51.27;100588.69;5015073;28;20038;-88
2023/05/05 07:38:09;;;;;;;12.57;8.13;;;20.60;63.60;;;19.87;51.60;100593.56;5013878;28;20046;-89
2023/05/05 07:40:36;;;;;;;16.15;8.85;;;20.60;64.00;;;19.92;51.64;100590.88;5026386;28;20129;-89
2023/05/05 07:43:03;;;;;;;17.52;9.07;;;20.60;64.10;;;19.99;52.26;100594.09;5013097;28;20521;-90
2023/05/05 07:45:31;;;;;;;13.05;8.45;;;20.70;64.80;;;20.08;53.14;100600.59;5013842;28;20041;-88
2023/05/05 07:47:58;;;;;;;11.52;8.02;;;20.80;65.60;;;20.11;51.81;100604.69;5010123;28;20081;-89
2023/05/05 07:50:26;;;;;;;10.88;6.90;;;20.80;64.50;;;20.12;50.32;100596.28;5002527;28;20120;-90
2023/05/05 07:52:53;;;;;;;10.75;7.22;;;20.80;62.70;;;19.97;48.66;100596.28;5014633;28;20125;-90
2023/05/05 07:55:22;;;;;;;11.38;6.60;;;20.70;60.60;;;19.94;49.18;100604.94;5015666;28;20549;-91
2023/05/05 07:57:49;;;;;;;9.45;6.90;;;20.70;60.70;;;19.94;49.08;100608.44;5013069;28;20132;-90
2023/05/05 08:00:18;;;;;;;10.25;6.60;;;20.70;61.20;;;19.89;49.95;100613.06;5028129;28;20579;-90
2023/05/05 08:02:46;;;;;;;9.15;5.95;;;20.60;62.30;;;19.92;50.34;100607.13;5016306;28;20100;-91
2023/05/05 08:05:13;;;;;;;9.38;6.28;;;20.60;62.70;;;19.92;50.30;100610.63;5028037;28;20038;-90
2023/05/05 08:07:41;;;;;;;9.43;6.32;;;20.60;62.30;;;19.88;51.03;100603.31;5011699;28;20073;-89
2023/05/05 08:10:10;;;;;;;11.63;6.38;;;20.60;63.00;;;19.83;50.67;100614.94;5010454;28;20525;-90
2023/05/05 08:12:39;;;;;;;10.63;6.25;;;20.60;62.80;;;19.80;51.21;100608.16;5010077;28;20038;-90
2023/05/05 08:15:07;;;;;;;11.10;7.22;;;20.60;63.30;;;19.84;52.12;100613.06;5010986;28;20571;-91
2023/05/05 08:17:48;;;;;;;12.18;6.85;;;20.60;64.40;;;19.90;50.95;100612.78;5009647;28;20042;-91
2023/05/05 08:20:16;;;;;;;14.07;7.03;;;20.60;62.90;;;19.89;51.12;100613.88;5015812;28;20049;-88
2023/05/05 08:22:44;;;;;;;11.93;6.50;;;20.60;63.20;;;19.80;50.72;100619.00;5013404;28;20048;-87
2023/05/05 08:25:12;;;;;;;11.90;6.35;;;20.50;62.80;;;19.79;51.66;100619.28;5018819;28;20133;-87
2023/05/05 08:27:43;;;;;;;9.80;6.45;;;20.50;63.80;;;19.78;51.06;100623.88;5011045;28;20359;-87
2023/05/05 08:30:12;;;;;;;10.02;6.32;;;20.50;63.20;;;19.80;51.56;100620.88;5008576;28;20081;-86
2023/05/05 08:32:39;;;;;;;8.65;5.90;;;20.50;63.70;;;19.86;51.44;100624.41;5012254;28;20095;-87
2023/05/05 08:35:07;;;;;;;13.70;6.05;;;20.50;64.00;;;19.98;54.20;100623.06;5020264;28;20068;-88
2023/05/05 08:37:34;;;;;;;9.63;5.80;;;20.60;66.80;;;20.13;53.22;100613.34;5009285;28;20540;-86
2023/05/05 08:40:02;;;;;;;11.75;5.45;;;20.80;65.90;;;20.22;52.73;100606.28;5013748;28;20104;-88
2023/05/05 08:42:30;;;;;;;11.63;6.95;;;20.90;65.20;;;20.36;53.47;100614.69;5022449;28;20520;-87
2023/05/05 08:44:59;;;;;;;10.07;6.50;;;21.00;66.40;;;20.43;52.33;100613.31;5025558;28;20417;-87
2023/05/05 08:47:26;;;;;;;9.63;6.15;;;21.00;64.70;;;20.46;51.87;100612.78;5016087;28;20052;-87
2023/05/05 08:49:55;;;;;;;10.20;5.80;;;21.10;64.30;;;20.48;50.90;100605.19;5012585;28;20562;-86
2023/05/05 08:52:28;;;;;;;13.02;6.70;;;21.10;63.40;;;20.43;50.95;100605.19;5006852;28;20073;-86
2023/05/05 08:55:02;;;;;;;10.90;6.80;;;21.10;63.30;;;20.45;51.34;100607.63;5003256;28;20140;-87
2023/05/05 08:57:39;;;;;;;9.35;6.40;;;21.10;64.00;;;20.48;51.05;100612.50;5015525;28;20100;-87
2023/05/05 09:00:11;;;;;;;10.35;6.50;;;21.10;63.40;;;20.53;51.46;100599.78;5016844;28;20375;-84
2023/05/05 09:02:39;;;;;;;8.20;5.45;;;21.20;63.70;;;20.64;52.37;100599.75;5008159;28;20041;-86
2023/05/05 09:05:07;;;;;;;11.57;6.43;;;21.30;64.80;;;20.60;50.98;100601.41;5012477;28;20533;-86
2023/05/05 09:07:36;;;;;;;11.45;5.82;;;21.30;62.80;;;20.57;50.76;100603.56;5025319;28;20064;-87
2023/05/05 09:10:05;;;;;;;11.80;5.28;;;21.20;63.10;;;20.65;51.43;100604.09;5005366;28;20084;-86
2023/05/05 09:12:32;;;;;;;11.95;6.28;;;21.30;64.00;;;20.73;52.75;100606.22;5008593;28;20045;-87
2023/05/05 09:15:02;;;;;;;11.40;6.97;;;21.40;65.00;;;20.78;51.84;100607.03;5011487;28;20125;-87
2023/05/05 09:17:31;;;;;;;13.40;6.45;;;21.40;64.60;;;20.79;51.40;100605.16;5013438;28;20050;-87
2023/05/05 09:20:04;;;;;;;12.23;6.78;;;21.50;63.90;;;20.78;50.98;100609.72;5010869;28;20045;-88
2023/05/05 09:22:35;;;;;;;10.05;6.15;;;21.50;63.00;;;20.77;51.20;100604.59;5006751;28;20499;-85
2023/05/05 09:25:04;;;;;;;10.48;5.72;;;21.50;63.20;;;20.74;50.05;100614.09;5020282;28;20813;-87
2023/05/05 09:27:35;;;;;;;12.90;5.32;;;21.40;61.70;;;20.73;49.92;100611.66;5010787;28;20041;-87
2023/05/05 09:30:03;;;;;;;8.75;5.10;;;21.40;61.70;;;20.71;50.29;100613.84;5012026;28;20080;-86
2023/05/05 09:32:47;;;;;;;8.70;5.32;;;21.40;62.20;;;20.70;50.84;100613.03;5008552;28;20132;-85
2023/05/05 09:35:15;;;;;;;10.88;6.03;;;21.40;62.40;;;20.71;51.39;100614.66;5013280;28;20056;-86
2023/05/05 09:37:42;;;;;;;15.57;5.30;;;21.40;63.00;;;20.73;50.63;100612.47;5005416;28;20052;-86
2023/05/05 09:40:13;;;;;;;9.52;5.03;;;21.40;62.50;;;20.67;49.93;100618.19;5015758;28;20414;-87
2023/05/05 09:42:43;;;;;;;8.73;5.18;;;21.40;61.50;;;20.59;50.08;100622.25;5016464;28;20041;-85
2023/05/05 09:45:26;;;;;;;10.43;4.75;;;21.30;61.70;;;20.60;51.24;100612.25;5020112;28;20056;-89
2023/05/05 09:47:55;;;;;;;8.45;5.13;;;21.30;63.10;;;20.65;50.32;100615.75;5008327;28;20046;-91
2023/05/05 09:50:22;;;;;;;12.23;5.72;;;21.30;62.40;;;20.60;50.04;100609.53;5004354;28;20498;-90
2023/05/05 09:52:57;;;;;;;9.18;5.35;;;21.30;61.70;;;20.54;50.45;100612.22;5005784;28;20237;-90
2023/05/05 09:55:25;;;;;;;10.60;5.40;;;21.30;62.40;;;20.50;49.92;100616.59;5002520;28;20133;-90
2023/05/05 09:57:52;;;;;;;10.05;4.50;;;21.30;61.60;;;20.50;49.92;100608.47;5010071;28;20052;-91
2023/05/05 10:00:20;;;;;;;8.05;5.25;;;21.30;61.10;;;20.53;50.08;100613.31;5005269;28;20046;-90
2023/05/05 10:02:47;;;;;;;9.82;5.07;;;21.20;61.80;;;20.52;49.95;100616.31;5017195;28;20069;-90
2023/05/05 10:05:18;;;;;;;8.48;4.70;;;21.20;61.50;;;20.48;49.29;100607.91;5010732;28;20505;-89
2023/05/05 10:07:47;;;;;;;10.07;5.20;;;21.20;60.60;;;20.48;48.62;100599.78;5006338;28;20526;-91
2023/05/05 10:10:16;;;;;;;10.95;6.03;;;21.20;60.20;;;20.49;49.66;100609.53;4999324;28;20038;-89
2023/05/05 10:12:46;;;;;;;12.93;5.72;;;21.20;61.10;;;20.62;52.02;100601.94;5022088;28;20042;-90
2023/05/05 10:15:15;;;;;;;8.95;5.10;;;21.30;64.30;;;20.68;50.57;100606.25;5016518;28;20547;-91
2023/05/05 10:17:47;;;;;;;8.65;5.38;;;21.40;62.30;;;20.73;52.07;100611.66;5011902;28;20040;-89